CW2674 Weather Reports


Display with metric or nautical units.
time (UTC)temp
F
wind
direction
speed
MPH
gust
MPH
rain 1hr
in
rain 24hr
in
rain mn
in
humidity
%
barometer
mb
20200711231403 116 242 12.0 20.0 0.00 0.00 0.00 16 1006.7
20200711230409 116 297 8.0 16.0 0.00 0.00 0.00 16 1006.7
20200711224403 116 245 7.0 15.0 0.00 0.00 0.00 17 1007.1
20200711223403 115 256 9.0 21.0 0.00 0.00 0.00 17 1007.1
20200711221403 115 239 12.0 22.0 0.00 0.00 0.00 17 1007.5
20200711220404 115 242 9.0 22.0 0.00 0.00 0.00 17 1007.5
20200711214404 116 217 11.0 16.0 0.00 0.00 0.00 18 1007.8
20200711213403 116 221 12.0 21.0 0.00 0.00 0.00 17 1007.8
20200711211403 114 196 8.0 18.0 0.00 0.00 0.00 18 1008.5
20200711210404 115 222 9.0 16.0 0.00 0.00 0.00 18 1008.5
20200711204404 114 222 5.0 13.0 0.00 0.00 0.00 20 1009.1
20200711203403 113 260 7.0 10.0 0.00 0.00 0.00 19 1009.1
20200711201403 112 211 5.0 12.0 0.00 0.00 0.00 19 1009.8
20200711200404 112 226 4.0 13.0 0.00 0.00 0.00 20 1009.8
20200711194403 110 237 6.0 12.0 0.00 0.00 0.00 20 1010.5
20200711193403 110 251 5.0 12.0 0.00 0.00 0.00 20 1010.5
20200711191404 108 231 6.0 9.0 0.00 0.00 0.00 22 1011.0
20200711190403 108 216 6.0 12.0 0.00 0.00 0.00 23 1011.0
20200711184404 107 231 6.0 12.0 0.00 0.00 0.00 22 1011.5
20200711183403 106 248 6.0 13.0 0.00 0.00 0.00 23 1011.5
20200711181403 105 219 6.0 10.0 0.00 0.00 0.00 24 1011.7
20200711180406 105 217 6.0 13.0 0.00 0.00 0.00 25 1011.7
20200711174403 103 208 7.0 10.0 0.00 0.00 0.00 24 1012.0
20200711173404 103 221 5.0 12.0 0.00 0.00 0.00 28 1012.0
20200711171403 101 207 4.0 10.0 0.00 0.00 0.00 28 1012.1
20200711170404 100 204 5.0 12.0 0.00 0.00 0.00 27 1012.1
20200711164404 99 239 5.0 12.0 0.00 0.00 0.00 28 1012.1
20200711163404 99 217 6.0 10.0 0.00 0.00 0.00 28 1012.1
20200711161404 97 235 6.0 12.0 0.00 0.00 0.00 31 1012.2
20200711160404 97 243 3.0 12.0 0.00 0.00 0.00 31 1012.2
20200711154405 96 185 6.0 10.0 0.00 0.00 0.00 32 1012.2
20200711153404 96 236 5.0 10.0 0.00 0.00 0.00 32 1012.2
20200711151403 94 241 3.0 7.0 0.00 0.00 0.00 36 1012.1
20200711150404 93 169 3.0 8.0 0.00 0.00 0.00 35 1012.1
20200711144403 92 82 3.0 6.0 0.00 0.00 0.00 38 1011.7
20200711143403 91 92 3.0 6.0 0.00 0.00 0.00 39 1011.7
20200711141403 89 88 3.0 5.0 0.00 0.00 0.00 43 1011.4
20200711140410 89 355 1.0 2.0 0.00 0.00 0.00 45 1011.4
20200711134403 89 355 2.0 5.0 0.00 0.00 0.00 40 1011.1
20200711133403 89 333 1.0 8.0 0.00 0.00 0.00 40 1011.1
20200711131407 90 257 6.0 12.0 0.00 0.00 0.00 36 1010.8
20200711130403 90 261 5.0 13.0 0.00 0.00 0.00 43 1010.8
20200711124403 92 262 7.0 13.0 0.00 0.00 0.00 30 1010.5
20200711123403 91 248 7.0 16.0 0.00 0.00 0.00 29 1010.5
20200711121404 91 242 7.0 13.0 0.00 0.00 0.00 30 1010.0
20200711120404 90 235 5.0 12.0 0.00 0.00 0.00 31 1010.0
20200711114404 91 244 6.0 12.0 0.00 0.00 0.00 30 1009.8
20200711113404 92 256 7.0 15.0 0.00 0.00 0.00 30 1009.8
20200711111403 93 231 7.0 15.0 0.00 0.00 0.00 30 1009.7
20200711110404 93 229 8.0 14.0 0.00 0.00 0.00 29 1009.7
20200711104404 89 184 6.0 9.0 0.00 0.00 0.00 34 1008.8
20200711103403 87 186 3.0 7.0 0.00 0.00 0.00 37 1008.8
20200711101403 89 261 1.0 2.0 0.00 0.00 0.00 36 1008.2
20200711100405 89 260 1.0 3.0 0.00 0.00 0.00 35 1008.2
20200711094404 91 262 0.0 5.0 0.00 0.00 0.00 33 1007.9
20200711093404 92 265 2.0 7.0 0.00 0.00 0.00 31 1007.9
20200711091404 91 278 2.0 3.0 0.00 0.00 0.00 34 1008.3
20200711090403 91 266 2.0 3.0 0.00 0.00 0.00 34 1008.3
20200711084403 92 264 2.0 5.0 0.00 0.00 0.00 30 1008.3
20200711083404 93 269 4.0 5.0 0.00 0.00 0.00 30 1008.3
20200711081404 93 292 2.0 3.0 0.00 0.00 0.00 30 1008.6
20200711080403 93 256 2.0 3.0 0.00 0.00 0.00 29 1008.6
20200711074404 95 246 2.0 5.0 0.00 0.00 0.00 28 1008.3
20200711073404 97 278 3.0 8.0 0.00 0.00 0.00 25 1008.3
20200711071404 98 313 5.0 9.0 0.00 0.00 0.00 24 1008.3
20200711070403 98 304 5.0 12.0 0.00 0.00 0.00 24 1008.3
20200711064404 97 300 5.0 10.0 0.00 0.00 0.00 24 1008.4
20200711063405 95 307 3.0 8.0 0.00 0.00 0.00 26 1008.4
20200711061404 94 285 1.0 3.0 0.00 0.00 0.00 28 1008.4
20200711060404 95 284 1.0 3.0 0.00 0.00 0.00 27 1008.4
20200711054403 96 284 2.0 5.0 0.00 0.00 0.00 28 1008.4
20200711053404 97 284 2.0 5.0 0.00 0.00 0.00 27 1008.4
20200711051403 98 281 2.0 6.0 0.00 0.00 0.00 26 1008.3
20200711050403 98 291 2.0 5.0 0.00 0.00 0.00 26 1008.3
20200711044403 97 261 2.0 5.0 0.00 0.00 0.00 28 1008.1
20200711043404 97 264 2.0 5.0 0.00 0.00 0.00 27 1008.1
20200711041404 98 271 3.0 7.0 0.00 0.00 0.00 26 1007.9
20200711040404 99 259 3.0 6.0 0.00 0.00 0.00 27 1007.9
20200711034404 99 282 2.0 5.0 0.00 0.00 0.00 27 1007.4
20200711033404 100 268 3.0 7.0 0.00 0.00 0.00 27 1007.4
20200711031404 101 258 5.0 8.0 0.00 0.00 0.00 26 1007.4
20200711030404 100 262 3.0 9.0 0.00 0.00 0.00 28 1007.4
20200711024404 104 252 5.0 9.0 0.00 0.00 0.00 31 1007.2
20200711023403 105 261 5.0 12.0 0.00 0.00 0.00 22 1007.2
20200711021403 106 259 6.0 9.0 0.00 0.00 0.00 22 1007.4
20200711020403 106 271 6.0 12.0 0.00 0.00 0.00 20 1007.4
20200711014403 107 279 7.0 14.0 0.00 0.00 0.00 20 1007.4
20200711013403 108 282 6.0 12.0 0.00 0.00 0.00 20 1007.4
20200711011403 109 272 7.0 12.0 0.00 0.00 0.00 19 1007.6
20200711010404 110 280 8.0 13.0 0.00 0.00 0.00 18 1007.6
20200711004403 110 261 8.0 14.0 0.00 0.00 0.00 18 1007.8
20200711003404 111 285 8.0 16.0 0.00 0.00 0.00 17 1007.8
20200711001403 112 308 6.0 12.0 0.00 0.00 0.00 16 1008.1
20200711000403 112 274 6.0 12.0 0.00 0.00 0.00 17 1008.1
20200710234403 112 286 5.0 9.0 0.00 0.00 0.00 16 1008.4
20200710233403 113 317 6.0 14.0 0.00 0.00 0.00 16 1008.4